createdAt,value
2018-05-31T00:00:01.579Z,12.8
2018-05-31T00:00:51.355Z,12.8
2018-05-31T00:01:41.716Z,12.8
2018-05-31T00:02:31.800Z,12.8
2018-05-31T00:03:21.837Z,12.7
2018-05-31T00:04:11.890Z,12.7
2018-05-31T00:05:01.984Z,12.6
2018-05-31T00:05:52.058Z,12.6
2018-05-31T00:06:42.840Z,12.6
2018-05-31T00:07:32.172Z,12.6
2018-05-31T00:08:22.274Z,12.6
2018-05-31T00:09:12.322Z,12.5
2018-05-31T00:10:02.643Z,12.5
2018-05-31T00:10:51.838Z,12.4
2018-05-31T00:11:42.194Z,12.4
2018-05-31T00:12:32.553Z,12.4
2018-05-31T00:13:23.371Z,12.4
2018-05-31T00:14:12.680Z,12.4
2018-05-31T00:15:02.734Z,12.3
2018-05-31T00:15:52.502Z,12.3
2018-05-31T00:16:42.622Z,12.3
2018-05-31T00:17:32.917Z,12.3
2018-05-31T00:18:22.982Z,12.3
2018-05-31T00:19:13.057Z,12.2
2018-05-31T00:20:02.834Z,12.2
2018-05-31T00:20:53.197Z,12.1
2018-05-31T00:21:43.263Z,12.1
2018-05-31T00:22:33.315Z,12.1
2018-05-31T00:23:23.074Z,12.1
2018-05-31T00:24:13.157Z,12
2018-05-31T00:25:03.632Z,12
2018-05-31T00:25:53.573Z,11.9
2018-05-31T00:26:43.642Z,11.9
2018-05-31T00:27:33.692Z,11.9
2018-05-31T00:28:23.758Z,11.9
2018-05-31T00:29:13.519Z,11.9
2018-05-31T00:30:03.891Z,11.8
2018-05-31T00:30:53.653Z,11.8
2018-05-31T00:31:44.015Z,11.8
2018-05-31T00:32:34.084Z,11.8
2018-05-31T00:33:24.134Z,11.8
2018-05-31T00:34:13.907Z,11.8
2018-05-31T00:35:04.265Z,11.7
2018-05-31T00:35:54.304Z,11.7
2018-05-31T00:36:44.091Z,11.6
2018-05-31T00:37:34.443Z,11.6
2018-05-31T00:38:24.518Z,11.6
2018-05-31T00:39:15.268Z,11.6
2018-05-31T00:40:04.346Z,11.6
2018-05-31T00:40:54.712Z,11.5
2018-05-31T00:41:44.474Z,11.5
2018-05-31T00:42:35.066Z,11.5
2018-05-31T00:43:24.620Z,11.5
2018-05-31T00:44:14.953Z,11.4
2018-05-31T00:45:05.031Z,11.4
2018-05-31T00:45:56.153Z,11.4
2018-05-31T00:46:45.155Z,11.4
2018-05-31T00:47:34.632Z,11.3
2018-05-31T00:48:24.988Z,11.3
2018-05-31T00:49:15.869Z,11.3
2018-05-31T00:50:05.395Z,11.3
2018-05-31T00:50:55.464Z,11.3
2018-05-31T00:51:45.236Z,11.2
2018-05-31T00:52:35.591Z,11.2
2018-05-31T00:53:25.359Z,11.2
2018-05-31T00:54:15.820Z,11.2
2018-05-31T00:55:05.824Z,11.1
2018-05-31T00:55:55.268Z,11.1
2018-05-31T00:56:45.626Z,11.1
2018-05-31T00:57:35.986Z,11.1
2018-05-31T00:58:25.746Z,11.1
2018-05-31T00:59:16.090Z,11.1
2018-05-31T01:00:06.165Z,11
2018-05-31T01:00:56.230Z,11
2018-05-31T01:01:46.298Z,11
2018-05-31T01:02:36.067Z,10.9
2018-05-31T01:03:26.424Z,10.9
2018-05-31T01:04:16.186Z,10.9
2018-05-31T01:05:06.557Z,10.9
2018-05-31T01:05:56.035Z,10.9
2018-05-31T01:06:46.674Z,10.9
2018-05-31T01:07:36.735Z,10.9
2018-05-31T01:08:27.139Z,10.8
2018-05-31T01:09:16.864Z,10.8
2018-05-31T01:10:06.939Z,10.8
2018-05-31T01:10:56.698Z,10.8
2018-05-31T01:11:48.104Z,10.8
2018-05-31T01:12:36.829Z,10.8
2018-05-31T01:13:26.598Z,10.8
2018-05-31T01:14:17.244Z,10.7
2018-05-31T01:15:08.005Z,10.7
2018-05-31T01:15:57.097Z,10.7
2018-05-31T01:16:47.448Z,10.7
2018-05-31T01:17:37.506Z,10.7
2018-05-31T01:18:29.068Z,10.6
2018-05-31T01:19:17.136Z,10.6
2018-05-31T01:20:07.391Z,10.6
2018-05-31T01:20:57.481Z,10.6
2018-05-31T01:21:47.836Z,10.6
2018-05-31T01:22:37.297Z,10.6
2018-05-31T01:23:27.951Z,10.6
2018-05-31T01:24:17.995Z,10.6
2018-05-31T01:25:08.080Z,10.6
2018-05-31T01:25:58.373Z,10.5
2018-05-31T01:26:48.203Z,10.5
2018-05-31T01:27:37.970Z,10.5
2018-05-31T01:28:28.337Z,10.5
2018-05-31T01:29:18.392Z,10.5
2018-05-31T01:30:08.471Z,10.4
2018-05-31T01:30:58.501Z,10.4
2018-05-31T01:31:48.569Z,10.4
2018-05-31T01:32:38.651Z,10.4
2018-05-31T01:33:28.704Z,10.4
2018-05-31T01:34:18.784Z,10.4
2018-05-31T01:35:08.876Z,10.4
2018-05-31T01:35:58.895Z,10.4
2018-05-31T01:36:48.670Z,10.4
2018-05-31T01:37:39.476Z,10.4
2018-05-31T01:38:28.799Z,10.4
2018-05-31T01:39:19.177Z,10.3
2018-05-31T01:40:09.268Z,10.3
2018-05-31T01:40:59.791Z,10.3
2018-05-31T01:41:49.379Z,10.3
2018-05-31T01:42:39.399Z,10.3
2018-05-31T01:43:29.183Z,10.3
2018-05-31T01:44:19.811Z,10.3
2018-05-31T01:45:09.589Z,10.3
2018-05-31T01:45:59.653Z,10.3
2018-05-31T01:46:49.725Z,10.3
2018-05-31T01:47:41.461Z,10.2
2018-05-31T01:48:29.862Z,10.2
2018-05-31T01:49:19.916Z,10.2
2018-05-31T01:50:09.686Z,10.2
2018-05-31T01:50:59.745Z,10.2
2018-05-31T01:51:49.866Z,10.2
2018-05-31T01:52:39.866Z,10.1
2018-05-31T01:53:29.940Z,10.1
2018-05-31T01:54:20.001Z,10.1
2018-05-31T01:55:10.372Z,10.1
2018-05-31T01:56:00.134Z,10.1
2018-05-31T01:56:50.475Z,10.1
2018-05-31T01:57:40.549Z,10
2018-05-31T01:58:30.605Z,10
2018-05-31T01:59:20.671Z,10
2018-05-31T02:00:10.747Z,10
2018-05-31T02:01:00.808Z,9.9
2018-05-31T02:01:50.877Z,9.9
2018-05-31T02:02:40.931Z,9.9
2018-05-31T02:03:30.998Z,9.9
2018-05-31T02:04:21.052Z,9.9
2018-05-31T02:05:11.133Z,9.9
2018-05-31T02:06:01.185Z,9.9
2018-05-31T02:06:51.251Z,9.9
2018-05-31T02:07:41.310Z,9.9
2018-05-31T02:08:31.372Z,9.8
2018-05-31T02:09:21.434Z,9.8
2018-05-31T02:10:12.152Z,9.8
2018-05-31T02:11:01.584Z,9.8
2018-05-31T02:11:51.628Z,9.8
2018-05-31T02:12:41.415Z,9.8
2018-05-31T02:13:32.622Z,9.8
2018-05-31T02:14:21.813Z,9.7
2018-05-31T02:15:11.905Z,9.7
2018-05-31T02:16:01.650Z,9.7
2018-05-31T02:16:52.989Z,9.7
2018-05-31T02:17:42.064Z,9.6
2018-05-31T02:18:31.837Z,9.6
2018-05-31T02:19:21.620Z,9.6
2018-05-31T02:20:13.225Z,9.6
2018-05-31T02:21:02.329Z,9.6
2018-05-31T02:21:52.396Z,9.6
2018-05-31T02:22:42.461Z,9.6
2018-05-31T02:23:32.517Z,9.5
2018-05-31T02:24:22.080Z,9.5
2018-05-31T02:25:12.626Z,9.4
2018-05-31T02:26:02.720Z,9.4
2018-05-31T02:26:52.488Z,9.4
2018-05-31T02:27:42.842Z,9.4
2018-05-31T02:28:32.892Z,9.4
2018-05-31T02:29:22.965Z,9.4
2018-05-31T02:30:13.027Z,9.4
2018-05-31T02:31:03.173Z,9.3
2018-05-31T02:31:53.150Z,9.3
2018-05-31T02:32:43.211Z,9.3
2018-05-31T02:33:33.265Z,9.3
2018-05-31T02:34:23.045Z,9.3
2018-05-31T02:35:13.423Z,9.3
2018-05-31T02:36:03.510Z,9.3
2018-05-31T02:36:53.533Z,9.2
2018-05-31T02:37:43.607Z,9.2
2018-05-31T02:38:33.662Z,9.1
2018-05-31T02:39:24.385Z,9.1
2018-05-31T02:40:13.196Z,9.1
2018-05-31T02:41:03.858Z,9.1
2018-05-31T02:41:53.905Z,9.1
2018-05-31T02:42:45.447Z,9.1
2018-05-31T02:43:34.038Z,9.1
2018-05-31T02:44:24.092Z,9
2018-05-31T02:45:14.159Z,9
2018-05-31T02:46:05.141Z,9
2018-05-31T02:46:54.292Z,9
2018-05-31T02:47:44.363Z,8.9
2018-05-31T02:48:34.137Z,8.9
2018-05-31T02:49:23.904Z,8.9
2018-05-31T02:50:14.543Z,8.9
2018-05-31T02:51:04.605Z,8.9
2018-05-31T02:51:54.669Z,8.8
2018-05-31T02:52:44.760Z,8.8
2018-05-31T02:53:34.819Z,8.8
2018-05-31T02:54:24.566Z,8.8
2018-05-31T02:55:14.932Z,8.8
2018-05-31T02:56:04.999Z,8.7
2018-05-31T02:56:55.096Z,8.7
2018-05-31T02:57:45.098Z,8.7
2018-05-31T02:58:35.182Z,8.7
2018-05-31T02:59:25.251Z,8.6
2018-05-31T03:00:15.301Z,8.6
2018-05-31T03:01:05.357Z,8.6
2018-05-31T03:01:55.139Z,8.6
2018-05-31T03:02:45.190Z,8.6
2018-05-31T03:03:35.551Z,8.6
2018-05-31T03:04:25.422Z,8.6
2018-05-31T03:05:16.046Z,8.6
2018-05-31T03:06:05.756Z,8.5
2018-05-31T03:06:55.510Z,8.5
2018-05-31T03:07:45.983Z,8.5
2018-05-31T03:08:36.582Z,8.5
2018-05-31T03:09:26.037Z,8.4
2018-05-31T03:10:15.789Z,8.4
2018-05-31T03:11:06.127Z,8.4
2018-05-31T03:11:56.962Z,8.4
2018-05-31T03:12:46.258Z,8.4
2018-05-31T03:13:36.030Z,8.4
2018-05-31T03:14:25.813Z,8.4
2018-05-31T03:15:16.164Z,8.4
2018-05-31T03:16:06.549Z,8.4
2018-05-31T03:16:56.287Z,8.4
2018-05-31T03:17:46.654Z,8.4
2018-05-31T03:18:36.702Z,8.3
2018-05-31T03:19:26.789Z,8.3
2018-05-31T03:20:16.831Z,8.3
2018-05-31T03:21:06.607Z,8.3
2018-05-31T03:21:56.681Z,8.3
2018-05-31T03:22:47.022Z,8.3
2018-05-31T03:23:37.067Z,8.3
2018-05-31T03:24:27.171Z,8.3
2018-05-31T03:25:17.264Z,8.3
2018-05-31T03:26:07.281Z,8.3
2018-05-31T03:26:57.040Z,8.3
2018-05-31T03:27:47.401Z,8.3
2018-05-31T03:28:37.471Z,8.3
2018-05-31T03:29:27.528Z,8.3
2018-05-31T03:30:17.602Z,8.3
2018-05-31T03:31:08.610Z,8.3
2018-05-31T03:31:57.704Z,8.3
2018-05-31T03:32:47.484Z,8.3
2018-05-31T03:33:37.848Z,8.3
2018-05-31T03:34:29.145Z,8.3
2018-05-31T03:35:17.975Z,8.3
2018-05-31T03:36:07.738Z,8.3
2018-05-31T03:36:58.102Z,8.3
2018-05-31T03:37:48.303Z,8.3
2018-05-31T03:38:38.214Z,8.3
2018-05-31T03:39:27.990Z,8.3
2018-05-31T03:40:18.325Z,8.3
2018-05-31T03:41:08.408Z,8.3
2018-05-31T03:41:58.495Z,8.3
2018-05-31T03:42:48.555Z,8.3
2018-05-31T03:43:38.014Z,8.3
2018-05-31T03:44:28.673Z,8.3
2018-05-31T03:45:18.444Z,8.4
2018-05-31T03:46:08.800Z,8.4
2018-05-31T03:46:58.854Z,8.4
2018-05-31T03:47:48.919Z,8.4
2018-05-31T03:48:38.995Z,8.4
2018-05-31T03:49:28.458Z,8.4
2018-05-31T03:50:18.822Z,8.4
2018-05-31T03:51:09.181Z,8.4
2018-05-31T03:51:58.994Z,8.4
2018-05-31T03:52:49.299Z,8.4
2018-05-31T03:53:39.069Z,8.5
2018-05-31T03:54:29.127Z,8.5
2018-05-31T03:55:19.209Z,8.5
2018-05-31T03:56:09.550Z,8.6
2018-05-31T03:57:00.854Z,8.6
2018-05-31T03:57:49.401Z,8.6
2018-05-31T03:58:39.728Z,8.6
2018-05-31T03:59:29.814Z,8.6
2018-05-31T04:00:21.029Z,8.6
2018-05-31T04:01:09.928Z,8.7
2018-05-31T04:02:00.025Z,8.7
2018-05-31T04:02:50.067Z,8.7
2018-05-31T04:03:39.827Z,8.8
2018-05-31T04:04:30.210Z,8.8
2018-05-31T04:05:20.247Z,8.8
2018-05-31T04:06:10.323Z,8.8
2018-05-31T04:07:00.386Z,8.8
2018-05-31T04:07:50.469Z,8.9
2018-05-31T04:08:40.505Z,8.9
2018-05-31T04:09:30.580Z,8.9
2018-05-31T04:10:20.345Z,8.9
2018-05-31T04:11:10.700Z,8.9
2018-05-31T04:12:00.457Z,9
2018-05-31T04:12:50.827Z,9
2018-05-31T04:13:40.591Z,9
2018-05-31T04:14:30.359Z,9.1
2018-05-31T04:15:21.031Z,9.1
2018-05-31T04:16:10.785Z,9.1
2018-05-31T04:17:00.559Z,9.1
2018-05-31T04:17:50.932Z,9.2
2018-05-31T04:18:41.274Z,9.2
2018-05-31T04:19:31.946Z,9.3
2018-05-31T04:20:21.386Z,9.3
2018-05-31T04:21:11.458Z,9.3
2018-05-31T04:22:01.527Z,9.4
2018-05-31T04:22:51.881Z,9.4
2018-05-31T04:23:41.645Z,9.4
2018-05-31T04:24:31.714Z,9.5
2018-05-31T04:25:21.780Z,9.5
2018-05-31T04:26:12.829Z,9.6
2018-05-31T04:27:01.913Z,9.6
2018-05-31T04:27:51.697Z,9.7
2018-05-31T04:28:42.037Z,9.7
2018-05-31T04:29:32.087Z,9.8
2018-05-31T04:30:22.154Z,9.8
2018-05-31T04:31:11.954Z,9.9
2018-05-31T04:32:02.001Z,9.9
2018-05-31T04:32:52.355Z,10
2018-05-31T04:33:42.604Z,10.1
2018-05-31T04:34:32.490Z,10.1
2018-05-31T04:35:22.539Z,10.2
2018-05-31T04:36:12.593Z,10.3
2018-05-31T04:37:02.385Z,10.3
2018-05-31T04:37:52.729Z,10.4
2018-05-31T04:38:42.801Z,10.4
2018-05-31T04:39:32.563Z,10.5
2018-05-31T04:40:22.334Z,10.6
2018-05-31T04:41:12.989Z,10.7
2018-05-31T04:42:03.070Z,10.8
2018-05-31T04:42:53.109Z,10.9
2018-05-31T04:43:43.171Z,10.9
2018-05-31T04:44:32.953Z,11.1
2018-05-31T04:45:24.352Z,11.2
2018-05-31T04:46:13.368Z,11.3
2018-05-31T04:47:03.424Z,11.4
2018-05-31T04:47:53.486Z,11.5
2018-05-31T04:48:44.792Z,11.6
2018-05-31T04:49:33.614Z,11.8
2018-05-31T04:50:23.697Z,11.9
2018-05-31T04:51:13.464Z,12.1
2018-05-31T04:52:04.139Z,12.1
2018-05-31T04:52:53.904Z,12.3
2018-05-31T04:53:43.939Z,12.4
2018-05-31T04:54:33.716Z,12.6
2018-05-31T04:55:24.093Z,12.8
2018-05-31T04:56:14.119Z,12.9
2018-05-31T04:57:03.908Z,13
2018-05-31T04:57:54.268Z,13.2
2018-05-31T04:58:44.321Z,13.3
2018-05-31T04:59:34.382Z,13.5
2018-05-31T05:00:24.459Z,13.6
2018-05-31T05:01:14.209Z,13.8
2018-05-31T05:02:04.572Z,13.9
2018-05-31T05:02:54.734Z,14.1
2018-05-31T05:03:44.729Z,14.3
2018-05-31T05:04:34.771Z,14.5
2018-05-31T05:05:24.829Z,14.6
2018-05-31T05:06:14.881Z,14.8
2018-05-31T05:07:04.961Z,15
2018-05-31T05:07:55.334Z,15.2
2018-05-31T05:08:44.505Z,15.3
2018-05-31T05:09:35.136Z,15.5
2018-05-31T05:10:25.208Z,15.7
2018-05-31T05:11:16.508Z,15.9
2018-05-31T05:12:05.326Z,16.1
2018-05-31T05:12:55.110Z,16.3
2018-05-31T05:13:44.886Z,16.4
2018-05-31T05:14:36.236Z,16.6
2018-05-31T05:15:25.592Z,16.9
2018-05-31T05:16:15.663Z,17.1
2018-05-31T05:17:05.730Z,17.3
2018-05-31T05:17:55.773Z,17.4
2018-05-31T05:18:45.845Z,17.7
2018-05-31T05:19:35.608Z,17.9
2018-05-31T05:20:25.975Z,18.1
2018-05-31T05:21:16.037Z,18.4
2018-05-31T05:22:05.809Z,18.6
2018-05-31T05:22:55.859Z,18.8
2018-05-31T05:23:45.943Z,19.1
2018-05-31T05:24:36.019Z,19.3
2018-05-31T05:25:26.347Z,19.6
2018-05-31T05:26:16.422Z,19.1
2018-05-31T05:27:06.483Z,16.8
2018-05-31T05:27:56.549Z,24.6
2018-05-31T05:28:46.611Z,28
2018-05-31T05:29:36.707Z,31
2018-05-31T05:30:26.737Z,32.2
2018-05-31T05:31:16.802Z,32.5
2018-05-31T05:32:06.570Z,32.6
2018-05-31T05:32:56.934Z,32.6
2018-05-31T05:33:47.164Z,32.3
2018-05-31T05:34:36.764Z,32.1
2018-05-31T05:35:27.109Z,31.9
2018-05-31T05:36:17.185Z,31.8
2018-05-31T05:37:07.350Z,31.8
2018-05-31T05:37:57.294Z,31.7
2018-05-31T05:38:47.366Z,31.6
2018-05-31T05:39:37.418Z,31.6
2018-05-31T05:40:28.641Z,31.5
2018-05-31T05:41:17.264Z,31.6
2018-05-31T05:42:07.354Z,30.5
2018-05-31T05:42:57.695Z,31.6
2018-05-31T05:43:47.764Z,32.2
2018-05-31T05:44:37.824Z,34.1
2018-05-31T05:45:27.644Z,34.6
2018-05-31T05:46:17.645Z,34.3
2018-05-31T05:47:07.996Z,34.1
2018-05-31T05:47:57.476Z,33.9
2018-05-31T05:48:48.133Z,34.1
2018-05-31T05:49:38.189Z,34.4
2018-05-31T05:50:27.978Z,34.7
2018-05-31T05:51:18.037Z,34.9
2018-05-31T05:52:08.381Z,34.9
2018-05-31T05:52:58.810Z,35.1
2018-05-31T05:53:48.272Z,35.2
2018-05-31T05:54:38.558Z,35.3
2018-05-31T05:55:28.639Z,35.5
2018-05-31T05:56:19.846Z,35.6
2018-05-31T05:57:08.482Z,35.8
2018-05-31T05:57:58.829Z,35.9
2018-05-31T05:58:48.887Z,36.1
2018-05-31T05:59:40.598Z,36.2
2018-05-31T06:00:29.016Z,36.3
2018-05-31T06:01:19.067Z,36.5
2018-05-31T06:02:09.149Z,36.6
2018-05-31T06:02:59.186Z,36.8
2018-05-31T06:03:49.257Z,36.9
2018-05-31T06:04:39.346Z,37.1
2018-05-31T06:05:29.400Z,37.2
2018-05-31T06:06:19.465Z,37.3
2018-05-31T06:07:09.241Z,37.5
2018-05-31T06:07:59.580Z,37.6
2018-05-31T06:08:49.655Z,37.8
2018-05-31T06:09:39.719Z,37.9
2018-05-31T06:10:29.795Z,38.1
2018-05-31T06:11:19.855Z,38.2
2018-05-31T06:12:09.902Z,38.3
2018-05-31T06:12:59.969Z,38.5
2018-05-31T06:13:50.025Z,38.6
2018-05-31T06:14:40.099Z,38.8
2018-05-31T06:15:31.518Z,38.9
2018-05-31T06:16:20.217Z,39.1
2018-05-31T06:17:09.995Z,39.2
2018-05-31T06:18:00.349Z,39.3
2018-05-31T06:18:52.399Z,39.4
2018-05-31T06:19:40.495Z,39.6
2018-05-31T06:20:30.545Z,39.8
2018-05-31T06:21:20.317Z,39.9
2018-05-31T06:22:12.305Z,40
2018-05-31T06:23:00.764Z,40.2
2018-05-31T06:23:50.811Z,40.3
2018-05-31T06:24:41.154Z,40.4
2018-05-31T06:25:30.927Z,40.6
2018-05-31T06:26:20.891Z,40.8
2018-05-31T06:27:10.759Z,40.9
2018-05-31T06:28:01.111Z,41
2018-05-31T06:28:51.166Z,41.1
2018-05-31T06:29:40.648Z,41.3
2018-05-31T06:30:31.317Z,41.4
2018-05-31T06:31:21.448Z,41.6
2018-05-31T06:32:11.465Z,41.8
2018-05-31T06:33:01.513Z,41.9
2018-05-31T06:33:51.568Z,42
2018-05-31T06:34:41.593Z,42.1
2018-05-31T06:35:31.679Z,42.3
2018-05-31T06:36:21.715Z,42.4
2018-05-31T06:37:11.963Z,42.4
2018-05-31T06:38:01.847Z,42.4
2018-05-31T06:38:51.927Z,42.5
2018-05-31T06:39:42.006Z,42.6
2018-05-31T06:40:32.051Z,42.8
2018-05-31T06:41:21.835Z,42.9
2018-05-31T06:42:11.898Z,42.6
2018-05-31T06:43:02.372Z,42.4
2018-05-31T06:43:52.305Z,42.4
2018-05-31T06:44:42.367Z,42.6
2018-05-31T06:45:32.415Z,42.8
2018-05-31T06:46:22.513Z,43
2018-05-31T06:47:12.576Z,43.1
2018-05-31T06:48:02.627Z,43.3
2018-05-31T06:48:52.699Z,43.4
2018-05-31T06:49:42.500Z,43.6
2018-05-31T06:50:32.826Z,43.8
2018-05-31T06:51:22.874Z,43.9
2018-05-31T06:52:12.645Z,44.1
2018-05-31T06:53:03.006Z,44.3
2018-05-31T06:53:52.797Z,44.4
2018-05-31T06:54:42.854Z,44.6
2018-05-31T06:55:32.914Z,44.8
2018-05-31T06:56:23.292Z,44.9
2018-05-31T06:57:13.312Z,45.1
2018-05-31T06:58:02.907Z,45.3
2018-05-31T06:58:53.175Z,45.4
2018-05-31T06:59:43.503Z,45.6
2018-05-31T07:00:33.312Z,45.8
2018-05-31T07:01:23.362Z,45.9
2018-05-31T07:02:13.447Z,46.1
2018-05-31T07:03:03.769Z,46.2
2018-05-31T07:03:53.848Z,46.3
2018-05-31T07:04:43.896Z,46.2
2018-05-31T07:05:33.951Z,46.1
2018-05-31T07:06:24.020Z,46
2018-05-31T07:07:14.087Z,46
2018-05-31T07:08:04.144Z,46
2018-05-31T07:08:54.218Z,45.8
2018-05-31T07:09:44.003Z,45.4
2018-05-31T07:10:34.346Z,45
2018-05-31T07:11:23.921Z,44.8
2018-05-31T07:12:14.476Z,44.8
2018-05-31T07:13:04.538Z,44.9
2018-05-31T07:13:54.596Z,44.4
2018-05-31T07:14:44.660Z,43.9
2018-05-31T07:15:34.733Z,43.5
2018-05-31T07:16:24.798Z,43.3
2018-05-31T07:17:14.862Z,43.2
2018-05-31T07:18:04.917Z,43.1
2018-05-31T07:18:54.975Z,43.1
2018-05-31T07:19:45.042Z,43.1
2018-05-31T07:20:34.893Z,43.3
2018-05-31T07:21:24.897Z,43.3
2018-05-31T07:22:15.256Z,43.5
2018-05-31T07:23:05.295Z,43.7
2018-05-31T07:23:55.416Z,43.8
2018-05-31T07:24:45.452Z,44.1
2018-05-31T07:25:35.224Z,44.3
2018-05-31T07:26:25.571Z,44.4
2018-05-31T07:27:15.454Z,44.6
2018-05-31T07:28:05.700Z,44.8
2018-05-31T07:28:55.763Z,45.1
2018-05-31T07:29:45.837Z,45.3
2018-05-31T07:30:35.624Z,45.4
2018-05-31T07:31:25.674Z,45.6
2018-05-31T07:32:15.742Z,45.8
2018-05-31T07:33:06.078Z,46
2018-05-31T07:33:56.137Z,46.2
2018-05-31T07:34:46.207Z,46.4
2018-05-31T07:35:36.307Z,46.6
2018-05-31T07:36:26.385Z,46.8
2018-05-31T07:37:16.130Z,47
2018-05-31T07:38:06.482Z,47.1
2018-05-31T07:38:56.539Z,47.3
2018-05-31T07:39:46.607Z,47.5
2018-05-31T07:40:36.658Z,47.6
2018-05-31T07:41:26.428Z,47.8
2018-05-31T07:42:16.804Z,48
2018-05-31T07:43:06.838Z,48.1
2018-05-31T07:43:56.630Z,48.3
2018-05-31T07:44:46.965Z,48.4
2018-05-31T07:45:37.047Z,48.6
2018-05-31T07:46:26.548Z,48.8
2018-05-31T07:47:17.167Z,48.9
2018-05-31T07:48:07.231Z,49
2018-05-31T07:48:57.311Z,49.2
2018-05-31T07:49:47.365Z,49.3
2018-05-31T07:50:37.155Z,49.4
2018-05-31T07:51:27.484Z,49.6
2018-05-31T07:52:17.554Z,49.8
2018-05-31T07:53:07.610Z,49.9
2018-05-31T07:53:57.700Z,50
2018-05-31T07:54:47.455Z,50.1
2018-05-31T07:55:37.530Z,50.3
2018-05-31T07:56:27.581Z,50.4
2018-05-31T07:57:17.938Z,50.6
2018-05-31T07:58:08.317Z,50.6
2018-05-31T07:58:57.492Z,50.8
2018-05-31T07:59:48.132Z,50.9
2018-05-31T08:00:38.194Z,51.1
2018-05-31T08:01:28.251Z,51.2
2018-05-31T08:02:18.330Z,51.3
2018-05-31T08:03:08.434Z,51.4
2018-05-31T08:03:58.453Z,51.5
2018-05-31T08:04:48.529Z,51.7
2018-05-31T08:05:38.677Z,51.8
2018-05-31T08:07:18.719Z,52.1
2018-05-31T08:08:08.788Z,52.2
2018-05-31T08:08:58.577Z,52.3
2018-05-31T08:09:48.932Z,52.4
2018-05-31T08:10:38.714Z,52.6
2018-05-31T08:11:29.060Z,52.7
2018-05-31T08:12:18.567Z,52.8
2018-05-31T08:13:09.175Z,52.9
2018-05-31T08:13:59.240Z,53
2018-05-31T08:14:49.300Z,53.1
2018-05-31T08:15:39.356Z,53.3
2018-05-31T08:16:28.854Z,53.4
2018-05-31T08:17:19.507Z,53.5
2018-05-31T08:18:09.543Z,53.6
2018-05-31T08:18:59.633Z,53.7
2018-05-31T08:19:49.692Z,53.8
2018-05-31T08:20:39.560Z,53.9
2018-05-31T08:21:29.813Z,54.1
2018-05-31T08:22:19.876Z,54.2
2018-05-31T08:23:09.648Z,54.3
2018-05-31T08:23:59.717Z,54.4
2018-05-31T08:24:49.787Z,54.5
2018-05-31T08:25:39.847Z,54.6
2018-05-31T08:26:29.911Z,54.8
2018-05-31T08:27:20.247Z,54.9
2018-05-31T08:28:10.345Z,54.9
2018-05-31T08:29:00.390Z,55.1
2018-05-31T08:29:50.454Z,55.2
2018-05-31T08:30:40.510Z,55.3
2018-05-31T08:31:30.951Z,55.4
2018-05-31T08:32:20.650Z,55.6
2018-05-31T08:33:10.425Z,55.7
2018-05-31T08:34:00.791Z,55.8
2018-05-31T08:34:50.871Z,55.9
2018-05-31T08:35:40.908Z,56
2018-05-31T08:36:30.961Z,56.1
2018-05-31T08:37:21.016Z,56.3
2018-05-31T08:38:10.799Z,56.3
2018-05-31T08:39:01.160Z,56.4
2018-05-31T08:39:51.219Z,56.6
2018-05-31T08:40:41.280Z,56.7
2018-05-31T08:41:31.056Z,56.8
2018-05-31T08:42:21.414Z,56.9
2018-05-31T08:43:11.485Z,57.1
2018-05-31T08:44:01.675Z,57.1
2018-05-31T08:44:51.611Z,57.3
2018-05-31T08:45:41.673Z,57.4
2018-05-31T08:46:31.450Z,57.5
2018-05-31T08:47:21.507Z,57.6
2018-05-31T08:48:11.893Z,57.7
2018-05-31T08:49:51.983Z,57.9
2018-05-31T08:50:42.055Z,58
2018-05-31T08:51:31.554Z,58.1
2018-05-31T08:52:21.886Z,58.2
2018-05-31T08:53:12.243Z,58.3
2018-05-31T08:54:02.370Z,58.4
2018-05-31T08:54:52.108Z,58.5
2018-05-31T08:56:32.492Z,58.7
2018-05-31T08:57:22.723Z,58.8
2018-05-31T08:58:12.627Z,58.9
2018-05-31T08:59:02.711Z,59
2018-05-31T08:59:52.770Z,59.1
2018-05-31T09:00:42.829Z,59.2
2018-05-31T09:01:32.875Z,59.3
2018-05-31T09:02:22.942Z,59.4
2018-05-31T09:03:13.007Z,59.5
2018-05-31T09:04:03.087Z,59.6
2018-05-31T09:04:53.137Z,59.7
2018-05-31T09:05:43.242Z,59.8
2018-05-31T09:06:32.984Z,59.9
2018-05-31T09:07:23.340Z,60
2018-05-31T09:08:13.420Z,60.1
2018-05-31T09:09:03.474Z,60.2
2018-05-31T09:09:53.521Z,60.3
2018-05-31T09:10:43.582Z,60.4
2018-05-31T09:11:33.659Z,60.5
2018-05-31T09:12:23.699Z,60.6
2018-05-31T09:13:13.508Z,60.6
2018-05-31T09:14:03.859Z,60.8
2018-05-31T09:14:53.939Z,60.8
2018-05-31T09:15:43.963Z,60.9
2018-05-31T09:16:34.032Z,61
2018-05-31T09:17:24.096Z,61.1
2018-05-31T09:18:14.179Z,61.2
2018-05-31T09:19:04.247Z,61.3
2018-05-31T09:19:54.008Z,61.4
2018-05-31T09:20:44.375Z,61.4
2018-05-31T09:21:34.416Z,61.5
2018-05-31T09:22:24.483Z,61.6
2018-05-31T09:23:14.569Z,61.7
2018-05-31T09:24:04.610Z,61.8
2018-05-31T09:24:54.680Z,61.9
2018-05-31T09:25:44.736Z,61.9
2018-05-31T09:26:34.808Z,62
2018-05-31T09:27:24.583Z,62.1
2018-05-31T09:28:14.924Z,62.2
2018-05-31T09:29:05.021Z,62.3
2018-05-31T09:29:54.783Z,62.3
2018-05-31T09:30:45.130Z,62.4
2018-05-31T09:31:35.198Z,62.4
2018-05-31T09:32:24.969Z,62.6
2018-05-31T09:33:15.327Z,62.6
2018-05-31T09:34:05.405Z,62.7
2018-05-31T09:34:55.495Z,62.7
2018-05-31T09:35:45.534Z,62.8
2018-05-31T09:36:35.598Z,62.8
2018-05-31T09:37:25.646Z,62.9
2018-05-31T09:38:15.403Z,62.9
2018-05-31T09:39:05.772Z,63
2018-05-31T09:39:55.818Z,63
2018-05-31T09:40:45.912Z,63.1
2018-05-31T09:41:35.671Z,63.1
2018-05-31T09:42:26.021Z,63.1
2018-05-31T09:43:16.097Z,63.1
2018-05-31T09:44:06.164Z,63.2
2018-05-31T09:44:56.238Z,63.3
2018-05-31T09:45:46.298Z,63.3
2018-05-31T09:46:36.514Z,63.3
2018-05-31T09:47:26.431Z,63.3
2018-05-31T09:48:16.503Z,63.3
2018-05-31T09:49:05.984Z,63.4
2018-05-31T09:49:56.601Z,63.4
2018-05-31T09:50:46.679Z,63.4
2018-05-31T09:51:36.766Z,63.5
2018-05-31T09:52:26.244Z,63.5
2018-05-31T09:53:16.867Z,63.5
2018-05-31T09:54:06.927Z,63.5
2018-05-31T09:54:57.002Z,63.6
2018-05-31T09:55:47.042Z,63.6
2018-05-31T09:56:37.122Z,63.7
2018-05-31T09:57:27.200Z,63.8
2018-05-31T09:58:17.320Z,63.8
2018-05-31T09:59:07.047Z,63.9
2018-05-31T09:59:57.089Z,64
2018-05-31T10:00:47.161Z,64.1
2018-05-31T10:01:37.521Z,64.2
2018-05-31T10:02:27.566Z,64.3
2018-05-31T10:03:17.658Z,64.4
2018-05-31T10:04:07.430Z,64.4
2018-05-31T10:04:57.506Z,64.4
2018-05-31T10:05:47.557Z,64.4
2018-05-31T10:06:37.901Z,64.5
2018-05-31T10:07:27.962Z,64.6
2018-05-31T10:08:18.012Z,64.6
2018-05-31T10:09:08.083Z,64.7
2018-05-31T10:09:57.862Z,64.8
2018-05-31T10:10:48.209Z,64.8
2018-05-31T10:11:38.295Z,64.9
2018-05-31T10:12:28.352Z,64.8
2018-05-31T10:13:18.420Z,64.8
2018-05-31T10:14:08.473Z,64.9
2018-05-31T10:14:58.334Z,64.9
2018-05-31T10:15:48.602Z,64.9
2018-05-31T10:16:38.637Z,65
2018-05-31T10:17:28.735Z,65
2018-05-31T10:18:18.509Z,65.1
2018-05-31T10:19:08.860Z,65.1
2018-05-31T10:19:58.924Z,65.2
2018-05-31T10:20:48.990Z,65.3
2018-05-31T10:21:39.043Z,65.3
2018-05-31T10:22:29.138Z,65.4
2018-05-31T10:23:19.171Z,65.5
2018-05-31T10:24:08.954Z,65.6
2018-05-31T10:24:59.016Z,65.6
2018-05-31T10:25:49.376Z,65.7
2018-05-31T10:26:39.425Z,65.8
2018-05-31T10:27:29.509Z,65.8
2018-05-31T10:28:19.564Z,65.9
2018-05-31T10:29:09.336Z,65.9
2018-05-31T10:29:59.702Z,66
2018-05-31T10:30:49.746Z,66.1
2018-05-31T10:31:39.531Z,66.1
2018-05-31T10:32:29.911Z,66.2
2018-05-31T10:33:19.953Z,66.3
2018-05-31T10:34:09.737Z,66.3
2018-05-31T10:35:00.068Z,66.4
2018-05-31T10:35:49.868Z,66.4
2018-05-31T10:36:40.194Z,66.5
2018-05-31T10:37:30.286Z,66.5
2018-05-31T10:38:20.105Z,66.6
2018-05-31T10:39:10.404Z,66.6
2018-05-31T10:40:00.478Z,66.7
2018-05-31T10:40:50.528Z,66.7
2018-05-31T10:41:40.614Z,66.8
2018-05-31T10:42:30.386Z,66.9
2018-05-31T10:43:20.716Z,66.9
2018-05-31T10:44:10.794Z,66.9
2018-05-31T10:45:00.871Z,66.9
2018-05-31T10:45:50.913Z,67
2018-05-31T10:46:41.031Z,67.1
2018-05-31T10:47:31.078Z,67.1
2018-05-31T10:48:21.109Z,67.2
2018-05-31T10:49:10.594Z,67.2
2018-05-31T10:50:01.251Z,67.3
2018-05-31T10:50:51.023Z,67.3
2018-05-31T10:51:41.388Z,67.3
2018-05-31T10:52:31.156Z,67.4
2018-05-31T10:53:21.205Z,67.4
2018-05-31T10:54:11.591Z,67.4
2018-05-31T10:55:01.642Z,67.5
2018-05-31T10:55:51.693Z,67.6
2018-05-31T10:56:41.743Z,67.6
2018-05-31T10:57:31.811Z,67.6
2018-05-31T10:58:21.621Z,67.7
2018-05-31T10:59:12.048Z,67.8
2018-05-31T11:00:01.750Z,67.8
2018-05-31T11:00:51.513Z,67.8
2018-05-31T11:01:41.846Z,67.9
2018-05-31T11:02:32.195Z,67.9
2018-05-31T11:03:22.278Z,68
2018-05-31T11:04:12.332Z,68
2018-05-31T11:05:02.412Z,68.1
2018-05-31T11:05:52.455Z,68.1
2018-05-31T11:06:42.515Z,68.2
2018-05-31T11:07:32.577Z,68.2
2018-05-31T11:08:22.652Z,68.3
2018-05-31T11:09:12.713Z,68.3
2018-05-31T11:10:02.815Z,68.4
2018-05-31T11:10:52.833Z,68.4
2018-05-31T11:11:42.614Z,68.5
2018-05-31T11:12:32.954Z,68.5
2018-05-31T11:13:22.739Z,68.6
2018-05-31T11:14:13.094Z,68.6
2018-05-31T11:15:03.264Z,68.6
2018-05-31T11:15:53.223Z,68.7